MA38 weather

Fitchburg Paper Company Heliport
Fitchburg, Massachusetts, United States

Public forecast

Using degrees Fahrenheit for public forecast. Weather courtesy of forecast.io.

METAR (pilot weather report)

Closest report is Fitchburg Municipal Airport, 3.4 nm (6.4 km) ESE. Retrieved 2019/07/23 17:52 UTC (1 hour ago):

KFIT 231752Z AUTO 35006KT 10SM -RA OVC014 18/14 A2988 RMK AO2 RAB44 SLP117 P0000 60017 T01780144 10183 20161 53003

TAF (pilot weather forecast)

Closest forecast is Worcester Regional Airport, 18.9 nm (35.0 km) S. Retrieved 2019/07/23 18:34 UTC (20 minutes ago):

TAF KORH 231731Z 2318/2418 02008KT P6SM OVC015 FM231900 01007KT P6SM OVC040 FM240600 26003KT P6SM OVC030 FM240900 31003KT P6SM BKN010 FM241200 36006KT P6SM BKN070